NCAR-RAP Real-Time Weather Data

Output produced by METARs form (12 August 2020  18:24 UTC)
found at http://weather.rap.ucar.edu/surface/
 
RJBB 121800Z AUTO 23003KT 9999 NCD 26/26 Q1012 NOSIG
 
 
RJBE 121300Z 23006KT 9999 FEW025 SCT/// 28/25 Q1014
 
 
RJOA 121300Z 29004KT 9999 FEW020 27/23 Q1016
 
 
 
RJOH 121800Z 24005KT 9999 FEW020 BKN030 BKN/// 28/25 Q1012
 
RJOI 121755Z 22006KT 9999 FEW030 SCT160 BKN200 29/24 A2992 RMK SLP132 T02890239 10294 20283 56010
 
 
 
 
 
 
 
 
 
 
 
RJFF 121800Z AUTO 15006KT 9999 NSC 28/25 Q1013 NOSIG RMK A2993
 
 
 
RJFO 121300Z VRB02KT 9999 FEW040 BKN/// 27/25 Q1014
 
RJFR 121800Z 23004KT 9999 FEW020 SCT/// 28/24 Q1013
 
RJFS 121400Z 21009KT 9999 FEW035 BKN/// 28/27 Q1015